createdAt,value
2022-08-26T00:00:13.819Z,79.30
2022-08-26T00:01:18.097Z,79.20
2022-08-26T00:02:28.090Z,79.10
2022-08-26T00:03:31.631Z,79.10
2022-08-26T00:04:36.650Z,79.00
2022-08-26T00:05:40.981Z,79.00
2022-08-26T00:06:46.267Z,79.00
2022-08-26T00:07:50.076Z,79.00
2022-08-26T00:08:56.352Z,79.00
2022-08-26T00:09:59.356Z,79.20
2022-08-26T00:11:04.326Z,79.10
2022-08-26T00:12:12.307Z,79.00
2022-08-26T00:13:16.484Z,79.00
2022-08-26T00:14:30.744Z,79.10
2022-08-26T00:15:35.122Z,79.20
2022-08-26T00:16:41.031Z,79.30
2022-08-26T00:17:54.146Z,79.20
2022-08-26T00:18:57.110Z,79.30
2022-08-26T00:20:03.362Z,79.10
2022-08-26T00:21:07.791Z,79.10
2022-08-26T00:22:21.482Z,79.00
2022-08-26T00:23:24.843Z,79.20
2022-08-26T00:24:34.785Z,79.10
2022-08-26T00:25:38.419Z,79.00
2022-08-26T00:26:50.547Z,79.00
2022-08-26T00:27:54.409Z,78.90
2022-08-26T00:29:00.301Z,79.00
2022-08-26T00:30:05.863Z,78.80
2022-08-26T00:31:12.247Z,78.80
2022-08-26T00:32:15.766Z,78.80
2022-08-26T00:33:21.061Z,79.10
2022-08-26T00:34:24.198Z,79.20
2022-08-26T00:35:29.663Z,79.10
2022-08-26T00:36:36.209Z,78.90
2022-08-26T00:37:40.510Z,79.10
2022-08-26T00:38:43.169Z,79.10
2022-08-26T00:39:48.420Z,78.90
2022-08-26T00:40:56.857Z,79.10
2022-08-26T00:42:03.350Z,79.10
2022-08-26T00:43:09.286Z,79.10
2022-08-26T00:44:19.983Z,79.50
2022-08-26T00:45:25.639Z,79.40
2022-08-26T00:46:35.350Z,79.30
2022-08-26T00:47:47.857Z,79.10
2022-08-26T00:49:04.981Z,79.10
2022-08-26T00:50:28.210Z,79.10
2022-08-26T00:51:44.072Z,78.90
2022-08-26T00:52:49.345Z,79.20
2022-08-26T00:53:58.359Z,79.00
2022-08-26T00:55:13.969Z,79.10
2022-08-26T00:56:27.397Z,79.10
2022-08-26T00:57:34.811Z,79.00
2022-08-26T00:58:43.019Z,79.00
2022-08-26T00:59:50.395Z,79.00
2022-08-26T01:00:54.141Z,79.00
2022-08-26T01:02:00.697Z,79.10
2022-08-26T01:03:07.582Z,79.20
2022-08-26T01:04:23.151Z,79.20
2022-08-26T01:05:27.224Z,79.30
2022-08-26T01:06:30.086Z,79.20
2022-08-26T01:07:36.115Z,79.20
2022-08-26T01:08:44.818Z,79.30
2022-08-26T01:09:48.680Z,79.20
2022-08-26T01:10:55.930Z,79.30
2022-08-26T01:12:01.818Z,79.30
2022-08-26T01:13:14.190Z,79.20
2022-08-26T01:14:21.708Z,79.20
2022-08-26T01:15:32.964Z,79.30
2022-08-26T01:16:36.616Z,79.60
2022-08-26T01:17:41.109Z,79.70
2022-08-26T01:18:45.406Z,79.70
2022-08-26T01:19:53.535Z,79.50
2022-08-26T01:21:04.217Z,79.40
2022-08-26T01:22:13.727Z,79.40
2022-08-26T01:23:18.206Z,79.60
2022-08-26T01:24:29.847Z,79.80
2022-08-26T01:25:37.337Z,79.80
2022-08-26T01:26:46.119Z,79.80
2022-08-26T01:27:49.061Z,79.70
2022-08-26T01:29:00.210Z,79.60
2022-08-26T01:30:07.639Z,79.60
2022-08-26T01:31:15.155Z,79.70
2022-08-26T01:32:23.227Z,79.70
2022-08-26T01:33:42.144Z,79.60
2022-08-26T01:34:48.960Z,79.80
2022-08-26T01:35:53.629Z,79.60
2022-08-26T01:37:06.035Z,79.50
2022-08-26T01:38:11.324Z,79.40
2022-08-26T01:39:18.846Z,79.40
2022-08-26T01:40:32.880Z,79.80
2022-08-26T01:41:38.261Z,79.80
2022-08-26T01:42:43.444Z,79.70
2022-08-26T01:43:50.882Z,79.70
2022-08-26T01:45:00.144Z,79.60
2022-08-26T01:46:03.945Z,79.50
2022-08-26T01:47:11.735Z,79.70
2022-08-26T01:48:21.585Z,79.60
2022-08-26T01:49:27.840Z,79.60
2022-08-26T01:50:35.012Z,79.60
2022-08-26T01:51:44.362Z,79.60
2022-08-26T01:52:54.591Z,79.60
2022-08-26T01:53:58.641Z,79.70
2022-08-26T01:55:09.387Z,79.70
2022-08-26T01:56:16.944Z,79.70
2022-08-26T01:57:21.143Z,79.70
2022-08-26T01:58:31.520Z,80.00
2022-08-26T01:59:34.934Z,79.90
2022-08-26T02:00:40.444Z,79.80
2022-08-26T02:01:46.918Z,79.90
2022-08-26T02:03:16.464Z,79.80
2022-08-26T02:04:27.209Z,80.00
2022-08-26T02:05:29.895Z,80.00
2022-08-26T02:06:34.115Z,79.80
2022-08-26T02:07:39.253Z,79.80
2022-08-26T02:08:46.600Z,80.00
2022-08-26T02:09:50.290Z,80.00
2022-08-26T02:10:55.537Z,80.00
2022-08-26T02:12:01.688Z,80.10
2022-08-26T02:13:07.168Z,79.90
2022-08-26T02:14:20.944Z,80.00
2022-08-26T02:15:23.707Z,79.90
2022-08-26T02:16:33.734Z,80.10
2022-08-26T02:17:42.671Z,80.00
2022-08-26T02:18:49.772Z,80.00
2022-08-26T02:19:56.776Z,80.30
2022-08-26T02:21:02.045Z,80.20
2022-08-26T02:22:11.798Z,80.20
2022-08-26T02:23:15.647Z,80.30
2022-08-26T02:24:22.445Z,80.20
2022-08-26T02:25:34.472Z,80.20
2022-08-26T02:26:40.666Z,80.10
2022-08-26T02:27:44.423Z,80.40
2022-08-26T02:28:51.381Z,80.20
2022-08-26T02:30:01.537Z,80.20
2022-08-26T02:31:04.342Z,80.20
2022-08-26T02:32:10.173Z,80.40
2022-08-26T02:33:12.673Z,80.40
2022-08-26T02:34:28.134Z,80.50
2022-08-26T02:35:37.212Z,80.40
2022-08-26T02:36:41.942Z,80.50
2022-08-26T02:37:47.179Z,80.50
2022-08-26T02:38:56.098Z,80.50
2022-08-26T02:40:02.163Z,80.50
2022-08-26T02:41:07.998Z,80.70
2022-08-26T02:42:12.412Z,80.80
2022-08-26T02:43:16.974Z,80.80
2022-08-26T02:44:22.671Z,80.80
2022-08-26T02:45:28.042Z,81.00
2022-08-26T02:46:31.405Z,80.80
2022-08-26T02:47:36.263Z,81.00
2022-08-26T02:48:38.911Z,80.90
2022-08-26T02:49:44.997Z,80.90
2022-08-26T02:50:50.121Z,81.20
2022-08-26T02:51:55.305Z,80.90
2022-08-26T02:52:58.022Z,80.80
2022-08-26T02:54:01.471Z,80.80
2022-08-26T02:55:05.913Z,80.90
2022-08-26T02:56:10.483Z,81.10
2022-08-26T02:57:15.174Z,81.20
2022-08-26T02:58:21.714Z,81.10
2022-08-26T02:59:24.672Z,80.90
2022-08-26T03:00:31.972Z,81.20
2022-08-26T03:01:36.312Z,81.10
2022-08-26T03:02:40.157Z,81.10
2022-08-26T03:03:45.758Z,81.00
2022-08-26T03:04:58.156Z,81.10
2022-08-26T03:06:10.995Z,81.10
2022-08-26T03:07:13.971Z,81.20
2022-08-26T03:08:17.633Z,81.50
2022-08-26T03:09:20.579Z,81.40
2022-08-26T03:10:26.073Z,81.50
2022-08-26T03:11:33.033Z,81.50
2022-08-26T03:12:41.298Z,81.40
2022-08-26T03:13:44.941Z,81.40
2022-08-26T03:14:48.137Z,81.40
2022-08-26T03:15:51.943Z,81.40
2022-08-26T03:16:55.111Z,81.40
2022-08-26T03:17:58.911Z,81.60
2022-08-26T03:19:02.855Z,81.60
2022-08-26T03:20:09.408Z,81.50
2022-08-26T03:21:15.547Z,81.60
2022-08-26T03:22:23.410Z,81.70
2022-08-26T03:23:29.042Z,81.60
2022-08-26T03:24:33.056Z,81.60
2022-08-26T03:25:38.055Z,81.70
2022-08-26T03:26:52.354Z,81.70
2022-08-26T03:27:57.956Z,81.70
2022-08-26T03:29:20.964Z,81.80
2022-08-26T03:30:44.951Z,81.90
2022-08-26T03:31:50.182Z,81.80
2022-08-26T03:32:53.066Z,82.00
2022-08-26T03:33:59.789Z,81.90
2022-08-26T03:35:03.260Z,81.90
2022-08-26T03:36:08.796Z,81.80
2022-08-26T03:37:12.006Z,81.70
2022-08-26T03:38:16.173Z,81.90
2022-08-26T03:40:23.609Z,81.90
2022-08-26T03:41:26.604Z,81.80
2022-08-26T03:42:30.613Z,81.80
2022-08-26T03:43:34.474Z,81.80
2022-08-26T03:44:42.115Z,81.90
2022-08-26T03:45:46.146Z,82.00
2022-08-26T03:46:51.269Z,81.70
2022-08-26T03:47:54.604Z,81.90
2022-08-26T03:49:03.042Z,81.80
2022-08-26T03:50:13.174Z,81.90
2022-08-26T03:51:19.857Z,82.10
2022-08-26T03:52:23.510Z,82.00
2022-08-26T03:53:27.339Z,81.90
2022-08-26T03:54:30.355Z,81.90
2022-08-26T03:55:37.214Z,81.80
2022-08-26T03:56:41.734Z,81.80
2022-08-26T03:57:48.027Z,81.90
2022-08-26T03:58:52.659Z,81.90
2022-08-26T03:59:58.340Z,81.90
2022-08-26T04:01:00.991Z,81.80
2022-08-26T04:02:08.436Z,81.90
2022-08-26T04:03:36.024Z,81.80
2022-08-26T04:04:40.791Z,81.60
2022-08-26T04:05:43.715Z,81.60
2022-08-26T04:06:48.995Z,81.70
2022-08-26T04:07:55.034Z,81.70
2022-08-26T04:09:01.751Z,82.50
2022-08-26T04:10:04.931Z,82.70
2022-08-26T04:11:18.283Z,82.40
2022-08-26T04:12:21.075Z,82.60
2022-08-26T04:13:26.503Z,82.20
2022-08-26T04:14:32.856Z,82.40
2022-08-26T04:15:36.468Z,82.50
2022-08-26T04:16:43.186Z,82.30
2022-08-26T04:17:47.384Z,82.40
2022-08-26T04:18:49.908Z,82.50
2022-08-26T04:19:54.789Z,82.40
2022-08-26T04:20:57.347Z,82.20
2022-08-26T04:22:02.774Z,82.20
2022-08-26T04:23:05.838Z,82.00
2022-08-26T04:24:12.485Z,81.90
2022-08-26T04:25:15.499Z,82.00
2022-08-26T04:26:24.332Z,81.70
2022-08-26T04:27:26.702Z,81.80
2022-08-26T04:28:30.941Z,81.80
2022-08-26T04:29:40.795Z,81.90
2022-08-26T04:30:44.525Z,82.00
2022-08-26T04:31:48.363Z,82.40
2022-08-26T04:32:54.537Z,82.10
2022-08-26T04:33:57.189Z,82.00
2022-08-26T04:35:00.871Z,81.80
2022-08-26T04:36:07.002Z,82.00
2022-08-26T04:37:10.945Z,82.10
2022-08-26T04:38:15.013Z,82.10
2022-08-26T04:39:21.570Z,82.10
2022-08-26T04:40:27.858Z,82.00
2022-08-26T04:41:32.589Z,82.00
2022-08-26T04:42:37.964Z,82.00
2022-08-26T04:43:42.065Z,82.00
2022-08-26T04:44:48.447Z,82.00
2022-08-26T04:45:51.095Z,82.00
2022-08-26T04:46:55.969Z,81.90
2022-08-26T04:47:58.446Z,81.90
2022-08-26T04:49:02.261Z,82.00
2022-08-26T04:50:07.383Z,81.90
2022-08-26T04:51:11.808Z,82.30
2022-08-26T04:52:14.570Z,82.30
2022-08-26T04:53:19.761Z,82.20
2022-08-26T04:54:25.074Z,82.30
2022-08-26T04:55:38.470Z,82.30
2022-08-26T04:56:49.687Z,82.30
2022-08-26T04:57:53.263Z,82.40
2022-08-26T04:58:59.646Z,82.40
2022-08-26T05:00:12.119Z,82.30
2022-08-26T05:01:16.076Z,82.50
2022-08-26T05:02:19.505Z,82.40
2022-08-26T05:03:25.633Z,82.70
2022-08-26T05:04:28.896Z,82.60
2022-08-26T05:05:32.879Z,82.40
2022-08-26T05:06:37.277Z,82.40
2022-08-26T05:07:40.423Z,82.50
2022-08-26T05:08:47.531Z,82.50
2022-08-26T05:09:55.011Z,82.30
2022-08-26T05:10:59.454Z,82.50
2022-08-26T05:12:04.599Z,82.30
2022-08-26T05:13:11.036Z,82.40
2022-08-26T05:14:16.538Z,82.40
2022-08-26T05:15:20.706Z,82.40
2022-08-26T05:16:24.557Z,82.40
2022-08-26T05:17:29.551Z,82.30
2022-08-26T05:18:34.278Z,82.30
2022-08-26T05:19:42.808Z,82.10
2022-08-26T05:20:50.793Z,82.10
2022-08-26T05:21:54.654Z,82.10
2022-08-26T05:23:02.120Z,82.40
2022-08-26T05:24:07.231Z,82.10
2022-08-26T05:25:10.523Z,82.10
2022-08-26T05:26:14.612Z,82.00
2022-08-26T05:27:22.261Z,82.00
2022-08-26T05:28:37.421Z,82.20
2022-08-26T05:29:41.563Z,82.20
2022-08-26T05:30:48.001Z,82.20
2022-08-26T05:31:53.400Z,82.10
2022-08-26T05:33:01.544Z,82.00
2022-08-26T05:34:06.001Z,82.00
2022-08-26T05:35:11.358Z,82.00
2022-08-26T05:36:19.642Z,81.90
2022-08-26T05:37:23.727Z,81.80
2022-08-26T05:38:26.833Z,81.70
2022-08-26T05:39:36.127Z,81.70
2022-08-26T05:40:42.572Z,81.60
2022-08-26T05:41:47.410Z,81.80
2022-08-26T05:42:53.758Z,81.80
2022-08-26T05:44:02.987Z,81.90
2022-08-26T05:45:07.456Z,81.90
2022-08-26T05:46:13.811Z,81.80
2022-08-26T05:47:18.416Z,81.80
2022-08-26T05:48:24.504Z,81.70
2022-08-26T05:49:29.850Z,82.00
2022-08-26T05:50:39.533Z,82.00
2022-08-26T05:51:47.482Z,81.70
2022-08-26T05:52:51.305Z,81.90
2022-08-26T05:53:56.616Z,81.70
2022-08-26T05:55:01.613Z,81.60
2022-08-26T05:56:06.845Z,81.40
2022-08-26T05:57:09.401Z,81.30
2022-08-26T05:58:13.403Z,81.10
2022-08-26T05:59:24.234Z,81.10
2022-08-26T06:00:27.784Z,81.00
2022-08-26T06:01:35.803Z,80.90
2022-08-26T06:02:41.648Z,80.80
2022-08-26T06:03:49.006Z,80.70
2022-08-26T06:04:51.822Z,80.60
2022-08-26T06:05:57.772Z,81.00
2022-08-26T06:07:01.917Z,80.60
2022-08-26T06:08:19.267Z,80.30
2022-08-26T06:09:23.177Z,80.20
2022-08-26T06:10:32.442Z,80.00
2022-08-26T06:11:39.077Z,79.80
2022-08-26T06:12:41.661Z,79.80
2022-08-26T06:13:48.393Z,79.60
2022-08-26T06:14:53.385Z,79.60
2022-08-26T06:15:59.373Z,79.50
2022-08-26T06:17:04.648Z,79.50
2022-08-26T06:18:07.907Z,79.30
2022-08-26T06:19:14.286Z,79.10
2022-08-26T06:20:17.114Z,79.20
2022-08-26T06:21:24.181Z,79.10
2022-08-26T06:22:45.589Z,78.80
2022-08-26T06:24:09.097Z,78.80
2022-08-26T06:25:31.766Z,78.50
2022-08-26T06:26:42.832Z,78.40
2022-08-26T06:27:45.401Z,78.20
2022-08-26T06:28:50.836Z,78.00
2022-08-26T06:29:56.543Z,77.90
2022-08-26T06:31:00.197Z,77.70
2022-08-26T06:32:07.212Z,77.50
2022-08-26T06:33:11.650Z,77.20
2022-08-26T06:34:17.597Z,77.10
2022-08-26T06:35:20.176Z,76.90
2022-08-26T06:36:31.512Z,76.50
2022-08-26T06:37:36.986Z,76.20
2022-08-26T06:38:41.985Z,75.70
2022-08-26T06:39:46.481Z,75.40
2022-08-26T06:40:52.702Z,75.20
2022-08-26T06:42:02.590Z,74.90
2022-08-26T06:43:10.252Z,74.70
2022-08-26T06:44:17.995Z,74.50
2022-08-26T06:45:21.505Z,74.50
2022-08-26T06:46:26.072Z,74.50
2022-08-26T06:47:33.029Z,74.40
2022-08-26T06:48:38.813Z,74.50
2022-08-26T06:49:45.513Z,74.50
2022-08-26T06:50:48.431Z,74.60
2022-08-26T06:51:58.694Z,74.80
2022-08-26T06:53:01.773Z,74.90
2022-08-26T06:54:09.677Z,74.90
2022-08-26T06:55:16.059Z,75.10
2022-08-26T06:56:26.339Z,75.20
2022-08-26T06:57:33.099Z,75.40
2022-08-26T06:58:44.943Z,75.60
2022-08-26T06:59:51.201Z,76.20
2022-08-26T07:00:57.578Z,76.00
2022-08-26T07:02:04.707Z,76.00
2022-08-26T07:03:11.846Z,76.00
2022-08-26T07:04:21.807Z,76.00
2022-08-26T07:05:26.375Z,76.10
2022-08-26T07:06:31.091Z,76.10
2022-08-26T07:07:34.356Z,76.20
2022-08-26T07:08:38.592Z,76.20
2022-08-26T07:09:43.128Z,76.20
2022-08-26T07:10:46.089Z,76.20
2022-08-26T07:11:51.548Z,76.40
2022-08-26T07:12:59.705Z,76.60
2022-08-26T07:14:03.459Z,76.50
2022-08-26T07:15:08.919Z,76.40
2022-08-26T07:16:13.945Z,76.40
2022-08-26T07:17:19.581Z,76.40
2022-08-26T07:18:28.388Z,76.40
2022-08-26T07:19:35.900Z,76.50
2022-08-26T07:20:40.334Z,76.40
2022-08-26T07:21:46.927Z,76.30
2022-08-26T07:22:55.472Z,76.40
2022-08-26T07:24:03.404Z,76.70
2022-08-26T07:25:09.512Z,76.60
2022-08-26T07:26:17.392Z,76.50
2022-08-26T07:27:19.934Z,76.60
2022-08-26T07:28:27.767Z,76.60
2022-08-26T07:29:33.419Z,76.50
2022-08-26T07:30:41.990Z,76.50
2022-08-26T07:31:52.758Z,76.50
2022-08-26T07:32:58.953Z,76.50
2022-08-26T07:34:03.586Z,76.50
2022-08-26T07:35:08.875Z,76.50
2022-08-26T07:36:15.724Z,76.60
2022-08-26T07:37:18.609Z,76.70
2022-08-26T07:38:25.091Z,76.50
2022-08-26T07:39:28.578Z,76.70
2022-08-26T07:40:36.263Z,76.70
2022-08-26T07:41:39.665Z,76.60
2022-08-26T07:42:43.723Z,76.60
2022-08-26T07:43:46.669Z,76.70
2022-08-26T07:44:51.573Z,76.80
2022-08-26T07:45:54.503Z,76.80
2022-08-26T07:46:59.793Z,76.70
2022-08-26T07:48:07.187Z,76.70
2022-08-26T07:49:16.620Z,76.70
2022-08-26T07:50:49.201Z,76.60
2022-08-26T07:51:51.444Z,76.90
2022-08-26T07:52:56.741Z,76.80
2022-08-26T07:53:59.490Z,76.80
2022-08-26T07:55:04.491Z,76.80
2022-08-26T07:56:07.741Z,76.80
2022-08-26T07:57:15.808Z,76.70
2022-08-26T07:58:22.171Z,76.70
2022-08-26T07:59:29.165Z,76.80
2022-08-26T08:00:35.506Z,76.70
2022-08-26T08:01:38.886Z,76.60
2022-08-26T08:02:43.850Z,76.60
2022-08-26T08:03:47.071Z,76.60
2022-08-26T08:04:59.511Z,76.40
2022-08-26T08:06:05.367Z,76.40
2022-08-26T08:07:12.721Z,76.30
2022-08-26T08:08:26.971Z,76.30
2022-08-26T08:09:31.582Z,76.30
2022-08-26T08:10:39.722Z,76.20
2022-08-26T08:11:44.807Z,76.00
2022-08-26T08:12:48.468Z,76.00
2022-08-26T08:13:55.973Z,76.00
2022-08-26T08:14:59.267Z,75.80
2022-08-26T08:16:03.313Z,75.60
2022-08-26T08:17:06.223Z,75.60
2022-08-26T08:18:15.450Z,75.60
2022-08-26T08:19:19.097Z,75.50
2022-08-26T08:20:25.403Z,75.30
2022-08-26T08:21:33.283Z,75.30
2022-08-26T08:22:36.657Z,75.00
2022-08-26T08:23:40.757Z,74.90
2022-08-26T08:24:44.193Z,74.80
2022-08-26T08:25:46.864Z,74.70
2022-08-26T08:26:51.729Z,74.70
2022-08-26T08:28:00.134Z,74.60
2022-08-26T08:29:03.162Z,74.40
2022-08-26T08:30:08.634Z,74.20
2022-08-26T08:31:38.683Z,74.00
2022-08-26T08:32:45.519Z,73.60
2022-08-26T08:33:48.310Z,73.10
2022-08-26T08:34:54.950Z,72.70
2022-08-26T08:36:00.081Z,72.30
2022-08-26T08:37:10.642Z,72.00
2022-08-26T08:38:15.517Z,71.80
2022-08-26T08:39:20.449Z,71.40
2022-08-26T08:40:27.846Z,71.30
2022-08-26T08:41:49.857Z,71.20
2022-08-26T08:43:04.915Z,71.10
2022-08-26T08:44:14.021Z,70.90
2022-08-26T08:45:35.915Z,70.90
2022-08-26T08:46:41.129Z,70.60
2022-08-26T08:47:51.617Z,70.30
2022-08-26T08:48:59.921Z,70.40
2022-08-26T08:50:13.271Z,70.30
2022-08-26T08:51:29.651Z,70.30
2022-08-26T08:52:36.012Z,70.30
2022-08-26T08:53:46.460Z,70.30
2022-08-26T08:54:49.635Z,70.30
2022-08-26T08:56:13.603Z,70.30
2022-08-26T08:57:26.911Z,70.00
2022-08-26T08:58:57.303Z,69.60
2022-08-26T09:00:11.463Z,69.20
2022-08-26T09:01:31.554Z,69.00
2022-08-26T09:02:52.437Z,68.70
2022-08-26T09:04:17.244Z,68.70
2022-08-26T09:05:24.962Z,68.80
2022-08-26T09:06:29.555Z,68.70
2022-08-26T09:07:38.982Z,68.90
2022-08-26T09:08:47.211Z,68.90
2022-08-26T09:10:03.063Z,69.00
2022-08-26T09:11:08.094Z,69.10
2022-08-26T09:12:29.747Z,69.10
2022-08-26T09:13:32.630Z,69.10
2022-08-26T09:14:36.964Z,69.20
2022-08-26T09:15:58.492Z,69.30
2022-08-26T09:17:14.015Z,69.30
2022-08-26T09:18:32.785Z,69.50
2022-08-26T09:19:44.772Z,69.60
2022-08-26T09:20:55.229Z,69.60
2022-08-26T09:22:08.788Z,69.90
2022-08-26T09:23:27.595Z,70.00
2022-08-26T09:24:40.882Z,70.10
2022-08-26T09:25:51.055Z,70.20
2022-08-26T09:26:59.223Z,70.20
2022-08-26T09:28:03.614Z,70.50
2022-08-26T09:29:15.911Z,70.50
2022-08-26T09:30:33.105Z,70.60
2022-08-26T09:31:41.452Z,70.50
2022-08-26T09:32:56.042Z,70.90
2022-08-26T09:34:19.851Z,70.90
2022-08-26T09:35:32.008Z,71.00
2022-08-26T09:36:41.825Z,71.00
2022-08-26T09:39:01.355Z,71.20
2022-08-26T09:40:27.155Z,71.20
2022-08-26T09:41:34.010Z,71.20
2022-08-26T09:42:36.857Z,71.10
2022-08-26T09:43:43.733Z,71.20
2022-08-26T09:44:57.732Z,71.20
2022-08-26T09:46:20.757Z,71.20
2022-08-26T09:47:31.771Z,71.20
2022-08-26T09:48:41.115Z,71.20
2022-08-26T09:49:46.422Z,71.20
2022-08-26T09:50:56.246Z,71.30
2022-08-26T09:52:15.623Z,71.10
2022-08-26T09:53:30.249Z,71.30
2022-08-26T09:54:38.668Z,71.20
2022-08-26T09:55:45.380Z,71.30
2022-08-26T09:56:54.678Z,71.30
2022-08-26T09:58:03.586Z,71.40
2022-08-26T09:59:13.102Z,71.40
2022-08-26T10:00:38.606Z,71.50
2022-08-26T10:01:44.762Z,71.70
2022-08-26T10:02:51.160Z,71.70
2022-08-26T10:04:07.955Z,71.50
2022-08-26T10:05:27.589Z,71.60
2022-08-26T10:06:38.279Z,71.40
2022-08-26T10:07:49.012Z,71.30
2022-08-26T10:09:03.635Z,71.30
2022-08-26T10:10:24.071Z,71.30
2022-08-26T10:11:41.131Z,71.30
2022-08-26T10:13:06.082Z,71.30
2022-08-26T10:14:17.185Z,71.10
2022-08-26T10:15:21.219Z,71.00
2022-08-26T10:16:33.613Z,70.90
2022-08-26T10:17:43.560Z,70.90
2022-08-26T10:18:59.886Z,70.60
2022-08-26T10:20:22.969Z,70.80
2022-08-26T10:21:33.901Z,70.80
2022-08-26T10:22:50.358Z,70.80
2022-08-26T10:24:01.629Z,70.80
2022-08-26T10:25:14.773Z,70.60
2022-08-26T10:26:29.515Z,70.80
2022-08-26T10:27:48.351Z,70.80
2022-08-26T10:29:06.589Z,70.80
2022-08-26T10:30:14.459Z,70.60
2022-08-26T10:31:30.341Z,70.60
2022-08-26T10:32:44.213Z,70.60
2022-08-26T10:33:47.874Z,70.60
2022-08-26T10:34:51.535Z,70.60
2022-08-26T10:36:00.574Z,70.60
2022-08-26T10:37:13.975Z,70.50
2022-08-26T10:38:30.466Z,70.60
2022-08-26T10:39:45.905Z,70.40
2022-08-26T10:41:01.234Z,70.50
2022-08-26T10:42:16.991Z,70.40
2022-08-26T10:43:27.260Z,70.30
2022-08-26T10:44:38.766Z,70.20
2022-08-26T10:45:54.647Z,70.20
2022-08-26T10:47:14.494Z,70.20
2022-08-26T10:48:24.467Z,70.20
2022-08-26T10:49:28.801Z,70.10
2022-08-26T10:50:35.591Z,70.00
2022-08-26T10:51:48.825Z,70.00
2022-08-26T10:53:02.700Z,69.90
2022-08-26T10:54:13.463Z,69.90
2022-08-26T10:55:34.726Z,69.90
2022-08-26T10:56:49.564Z,69.90
2022-08-26T10:58:04.712Z,69.80
2022-08-26T10:59:28.916Z,69.60
2022-08-26T11:01:01.222Z,69.70
2022-08-26T11:02:16.561Z,69.70
2022-08-26T11:03:36.556Z,69.70
2022-08-26T11:04:55.569Z,69.70
2022-08-26T11:06:29.042Z,69.80
2022-08-26T11:07:46.435Z,69.90
2022-08-26T11:08:50.688Z,70.00
2022-08-26T11:09:59.064Z,70.10
2022-08-26T11:11:04.181Z,70.10
2022-08-26T11:12:10.201Z,70.20
2022-08-26T11:13:17.307Z,70.30
2022-08-26T11:14:46.099Z,70.50
2022-08-26T11:16:01.362Z,70.60
2022-08-26T11:17:12.857Z,70.60
2022-08-26T11:18:40.786Z,70.60
2022-08-26T11:20:08.913Z,70.80
2022-08-26T11:21:46.214Z,70.80
2022-08-26T11:22:56.043Z,70.80
2022-08-26T11:24:02.264Z,70.80
2022-08-26T11:25:14.756Z,70.60
2022-08-26T11:26:36.040Z,70.60
2022-08-26T11:28:07.473Z,70.60
2022-08-26T11:29:13.271Z,70.60
2022-08-26T11:30:47.718Z,70.60
2022-08-26T11:32:00.675Z,70.60
2022-08-26T11:33:06.695Z,70.60
2022-08-26T11:34:15.219Z,70.60
2022-08-26T11:35:52.870Z,70.50
2022-08-26T11:37:00.286Z,70.50
2022-08-26T11:38:13.585Z,70.40
2022-08-26T11:39:28.698Z,70.30
2022-08-26T11:40:39.922Z,70.40
2022-08-26T11:41:52.706Z,70.30
2022-08-26T11:43:01.654Z,70.30
2022-08-26T11:44:09.167Z,70.20
2022-08-26T11:45:24.179Z,70.00
2022-08-26T11:46:35.772Z,69.90
2022-08-26T11:47:40.092Z,69.80
2022-08-26T11:48:44.278Z,69.60
2022-08-26T11:49:48.157Z,69.40
2022-08-26T11:50:54.853Z,69.30
2022-08-26T11:52:20.863Z,69.20
2022-08-26T11:53:26.151Z,69.10
2022-08-26T11:54:35.319Z,68.90
2022-08-26T11:55:45.249Z,68.80
2022-08-26T11:56:55.867Z,68.70
2022-08-26T11:58:05.861Z,68.60
2022-08-26T11:59:20.111Z,68.50
2022-08-26T12:00:33.587Z,68.40
2022-08-26T12:01:41.885Z,68.30
2022-08-26T12:02:46.323Z,68.30
2022-08-26T12:03:53.192Z,68.30
2022-08-26T12:05:02.842Z,68.30
2022-08-26T12:06:15.769Z,68.40
2022-08-26T12:07:26.239Z,68.40
2022-08-26T12:08:35.207Z,68.40
2022-08-26T12:09:54.831Z,68.40
2022-08-26T12:11:13.537Z,68.20
2022-08-26T12:12:34.551Z,68.10
2022-08-26T12:13:39.481Z,68.00
2022-08-26T12:14:45.172Z,68.00
2022-08-26T12:15:55.631Z,68.00
2022-08-26T12:17:13.574Z,68.00
2022-08-26T12:18:29.389Z,68.00
2022-08-26T12:19:38.236Z,68.00
2022-08-26T12:20:51.326Z,68.00
2022-08-26T12:22:03.594Z,67.90
2022-08-26T12:23:08.465Z,67.90
2022-08-26T12:24:21.084Z,67.90
2022-08-26T12:25:28.610Z,67.80
2022-08-26T12:26:43.206Z,67.80
2022-08-26T12:27:53.080Z,67.90
2022-08-26T12:29:00.970Z,67.80
2022-08-26T12:30:14.305Z,67.80
2022-08-26T12:31:32.450Z,67.80
2022-08-26T12:32:37.369Z,67.90
2022-08-26T12:34:01.839Z,68.00
2022-08-26T12:35:08.685Z,68.20
2022-08-26T12:36:21.180Z,68.30
2022-08-26T12:37:27.290Z,68.50
2022-08-26T12:38:36.895Z,68.60
2022-08-26T12:39:43.691Z,68.70
2022-08-26T12:40:51.104Z,68.80
2022-08-26T12:41:57.869Z,68.80
2022-08-26T12:43:05.245Z,68.60
2022-08-26T12:44:09.459Z,68.50
2022-08-26T12:45:29.181Z,68.50
2022-08-26T12:46:33.337Z,68.30
2022-08-26T12:47:44.785Z,68.20
2022-08-26T12:48:50.814Z,68.20
2022-08-26T12:50:05.075Z,68.10
2022-08-26T12:51:16.900Z,68.10
2022-08-26T12:52:33.493Z,68.10
2022-08-26T12:53:45.240Z,68.20
2022-08-26T12:55:01.276Z,68.10
2022-08-26T12:56:23.003Z,68.20
2022-08-26T12:57:30.494Z,68.20
2022-08-26T12:58:37.955Z,68.20
2022-08-26T12:59:41.519Z,68.20
2022-08-26T13:00:46.492Z,68.20
2022-08-26T13:01:50.625Z,68.10
2022-08-26T13:02:56.491Z,68.10
2022-08-26T13:04:00.473Z,68.20
2022-08-26T13:05:03.345Z,68.20
2022-08-26T13:06:18.557Z,68.20
2022-08-26T13:07:24.726Z,68.40
2022-08-26T13:08:29.621Z,68.60
2022-08-26T13:09:33.750Z,68.60
2022-08-26T13:10:42.277Z,68.70
2022-08-26T13:11:59.821Z,68.90
2022-08-26T13:13:05.088Z,69.00
2022-08-26T13:14:15.518Z,69.20
2022-08-26T13:15:26.770Z,69.20
2022-08-26T13:16:30.747Z,69.30
2022-08-26T13:17:36.496Z,69.50
2022-08-26T13:18:40.232Z,69.60
2022-08-26T13:19:44.663Z,69.80
2022-08-26T13:20:49.746Z,69.90
2022-08-26T13:21:58.056Z,69.90
2022-08-26T13:23:03.258Z,70.00
2022-08-26T13:24:12.325Z,70.10
2022-08-26T13:25:15.976Z,70.20
2022-08-26T13:26:24.249Z,70.20
2022-08-26T13:27:27.762Z,70.30
2022-08-26T13:28:31.887Z,70.40
2022-08-26T13:29:36.284Z,70.50
2022-08-26T13:30:41.640Z,70.40
2022-08-26T13:31:49.377Z,70.50
2022-08-26T13:33:02.171Z,70.60
2022-08-26T13:34:09.163Z,70.60
2022-08-26T13:35:12.128Z,70.50
2022-08-26T13:36:15.901Z,70.50
2022-08-26T13:37:22.429Z,70.60
2022-08-26T13:38:41.421Z,70.60
2022-08-26T13:39:53.710Z,70.60
2022-08-26T13:40:59.840Z,70.70
2022-08-26T13:42:03.428Z,70.80
2022-08-26T13:43:06.667Z,70.80
2022-08-26T13:44:13.469Z,70.70
2022-08-26T13:45:19.612Z,70.70
2022-08-26T13:46:23.495Z,70.80
2022-08-26T13:47:27.955Z,70.80
2022-08-26T13:48:32.513Z,70.90
2022-08-26T13:49:35.207Z,70.90
2022-08-26T13:50:41.249Z,71.00
2022-08-26T13:51:43.906Z,71.10
2022-08-26T13:52:47.633Z,71.00
2022-08-26T13:53:51.379Z,71.00
2022-08-26T13:54:55.205Z,71.10
2022-08-26T13:56:00.071Z,71.10
2022-08-26T13:57:03.282Z,71.10
2022-08-26T13:58:07.372Z,71.10
2022-08-26T13:59:10.876Z,71.10
2022-08-26T14:00:18.133Z,71.10
2022-08-26T14:01:21.754Z,71.10
2022-08-26T14:02:30.592Z,71.30
2022-08-26T14:03:37.358Z,71.40
2022-08-26T14:04:43.346Z,71.40
2022-08-26T14:05:48.135Z,71.60
2022-08-26T14:06:53.975Z,71.60
2022-08-26T14:07:57.342Z,71.60
2022-08-26T14:09:04.612Z,71.60
2022-08-26T14:10:09.207Z,71.70
2022-08-26T14:11:13.041Z,71.60
2022-08-26T14:12:18.128Z,71.60
2022-08-26T14:13:20.944Z,71.60
2022-08-26T14:14:25.210Z,71.60
2022-08-26T14:15:33.172Z,71.60
2022-08-26T14:16:58.695Z,71.50
2022-08-26T14:18:07.736Z,71.40
2022-08-26T14:19:13.817Z,71.40
2022-08-26T14:20:24.486Z,71.30
2022-08-26T14:21:28.339Z,71.30
2022-08-26T14:22:33.070Z,71.30
2022-08-26T14:23:35.798Z,71.20
2022-08-26T14:24:41.705Z,71.20
2022-08-26T14:25:44.772Z,71.20
2022-08-26T14:26:48.775Z,71.10
2022-08-26T14:27:53.261Z,71.10
2022-08-26T14:28:59.972Z,71.20
2022-08-26T14:30:07.120Z,71.20
2022-08-26T14:31:14.208Z,71.20
2022-08-26T14:32:25.690Z,71.10
2022-08-26T14:33:32.816Z,71.10
2022-08-26T14:34:36.833Z,71.00
2022-08-26T14:35:47.924Z,71.00
2022-08-26T14:36:52.746Z,70.80
2022-08-26T14:37:58.658Z,70.80
2022-08-26T14:39:06.660Z,70.70
2022-08-26T14:40:15.812Z,70.50
2022-08-26T14:41:21.610Z,70.50